Bend, Texas
Current Conditions -  °F | °C
As of 4:15 PM on Sunday 23 Nov 2014 (Local Time) from KLZZ Reporting Station
Clear Clear  
Wind Chill: 76°   Ceiling: Unl
Heat Index: 76°   Visibility: 10mi
Dew Point: 35°   Wind: 16mph
Humidity: 23%   Direction: 270°W
Pressure: 29.53"   Gusts: 24mph
Location:  31.1°N, 98.51°W
Report Text: KLZZ 232215Z AUTO 27014G21KT 10SM CLR 24/02 A2953 RMK AO2 T02420017
Loading
Personal Weather Stations






























Interactive Weather Map New forecast layout! Learn more

10-Day Weather Forecast

Advertisements
Track Severe Weather on mobile